createdAt,value
2023-04-30T00:00:01.435Z,100799.88
2023-04-30T00:05:02.862Z,100793.31
2023-04-30T00:10:05.325Z,100804.50
2023-04-30T00:15:07.115Z,100801.88
2023-04-30T00:20:08.728Z,100805.19
2023-04-30T00:25:10.069Z,100812.75
2023-04-30T00:30:12.093Z,100809.22
2023-04-30T00:35:13.454Z,100806.75
2023-04-30T00:40:15.002Z,100805.91
2023-04-30T00:45:17.912Z,100808.22
2023-04-30T00:50:19.771Z,100812.78
2023-04-30T00:55:21.564Z,100811.72
2023-04-30T01:00:22.999Z,100821.47
2023-04-30T01:05:24.511Z,100818.53
2023-04-30T01:10:46.325Z,100821.53
2023-04-30T01:15:57.041Z,100823.06
2023-04-30T01:21:03.961Z,100823.44
2023-04-30T01:26:41.541Z,100833.31
2023-04-30T01:31:46.145Z,100831.53
2023-04-30T01:37:08.360Z,100830.44
2023-04-30T01:42:20.452Z,100824.59
2023-04-30T01:47:30.898Z,100834.72
2023-04-30T01:52:50.080Z,100837.28
2023-04-30T01:58:05.100Z,100838.66
2023-04-30T02:03:07.590Z,100846.41
2023-04-30T02:08:09.003Z,100845.25
2023-04-30T02:13:10.414Z,100846.09
2023-04-30T02:18:11.764Z,100843.22
2023-04-30T02:23:13.256Z,100853.31
2023-04-30T02:28:14.667Z,100851.31
2023-04-30T02:33:16.125Z,100856.19
2023-04-30T02:38:17.450Z,100855.88
2023-04-30T02:43:18.865Z,100846.59
2023-04-30T02:48:20.209Z,100849.13
2023-04-30T02:53:21.517Z,100842.56
2023-04-30T02:58:22.861Z,100834.97
2023-04-30T03:03:24.195Z,100834.66
2023-04-30T03:08:26.477Z,100830.09
2023-04-30T03:13:28.172Z,100831.91
2023-04-30T03:18:29.528Z,100840.66
2023-04-30T03:23:30.958Z,100840.94
2023-04-30T03:28:32.350Z,100844.66
2023-04-30T03:33:34.176Z,100844.13
2023-04-30T03:38:35.580Z,100844.94
2023-04-30T03:43:37.891Z,100840.88
2023-04-30T03:48:39.218Z,100839.84
2023-04-30T03:53:40.631Z,100838.97
2023-04-30T03:58:42.026Z,100837.59
2023-04-30T04:03:43.437Z,100834.91
2023-04-30T04:08:44.818Z,100834.91
2023-04-30T04:13:46.383Z,100841.16
2023-04-30T04:18:47.764Z,100836.84
2023-04-30T04:23:49.290Z,100845.09
2023-04-30T04:28:50.678Z,100850.13
2023-04-30T04:33:58.036Z,100861.44
2023-04-30T04:39:02.521Z,100870.56
2023-04-30T04:44:04.672Z,100869.06
2023-04-30T04:49:06.416Z,100870.59
2023-04-30T04:54:07.742Z,100876.34
2023-04-30T04:59:09.114Z,100875.19
2023-04-30T05:04:10.484Z,100881.91
2023-04-30T05:09:11.845Z,100890.66
2023-04-30T05:14:13.213Z,100903.28
2023-04-30T05:19:14.532Z,100893.16
2023-04-30T05:24:16.093Z,100894.72
2023-04-30T05:29:17.420Z,100903.47
2023-04-30T05:34:18.813Z,100894.66
2023-04-30T05:39:20.222Z,100890.94
2023-04-30T05:44:21.945Z,100899.47
2023-04-30T05:49:23.318Z,100889.00
2023-04-30T05:54:24.662Z,100898.22
2023-04-30T05:59:26.100Z,100900.22
2023-04-30T06:04:27.563Z,100906.75
2023-04-30T06:09:28.870Z,100907.63
2023-04-30T06:14:30.623Z,100899.31
2023-04-30T06:19:32.027Z,100897.63
2023-04-30T06:24:33.377Z,100896.06
2023-04-30T06:29:34.732Z,100902.56
2023-04-30T06:34:36.985Z,100896.88
2023-04-30T06:39:38.335Z,100893.06
2023-04-30T06:44:39.670Z,100897.41
2023-04-30T06:49:41.030Z,100904.97
2023-04-30T06:54:43.759Z,100904.63
2023-04-30T06:59:45.121Z,100903.53
2023-04-30T07:04:46.735Z,100905.69
2023-04-30T07:09:49.714Z,100901.91
2023-04-30T07:14:53.363Z,100885.59
2023-04-30T07:19:54.994Z,100883.06
2023-04-30T07:24:56.702Z,100884.28
2023-04-30T07:29:58.128Z,100880.38
2023-04-30T07:34:59.481Z,100880.72
2023-04-30T07:40:00.865Z,100885.34
2023-04-30T07:45:03.540Z,100881.16
2023-04-30T07:50:05.538Z,100886.41
2023-04-30T07:55:07.249Z,100884.66
2023-04-30T08:00:09.406Z,100893.31
2023-04-30T08:05:11.187Z,100887.81
2023-04-30T08:10:12.820Z,100886.25
2023-04-30T08:15:14.298Z,100893.44
2023-04-30T08:20:15.725Z,100883.66
2023-04-30T08:25:17.159Z,100881.16
2023-04-30T08:30:19.079Z,100878.72
2023-04-30T08:35:21.819Z,100874.72
2023-04-30T08:40:33.848Z,100880.59
2023-04-30T08:45:45.421Z,100874.19
2023-04-30T08:50:46.871Z,100871.59
2023-04-30T08:55:48.402Z,100874.09
2023-04-30T09:00:49.744Z,100866.81
2023-04-30T09:05:51.114Z,100864.75
2023-04-30T09:10:52.562Z,100865.63
2023-04-30T09:15:53.954Z,100866.47
2023-04-30T09:21:02.818Z,100870.84
2023-04-30T09:26:04.200Z,100868.75
2023-04-30T09:31:20.046Z,100863.94
2023-04-30T09:36:21.470Z,100854.16
2023-04-30T09:41:27.750Z,100855.34
2023-04-30T09:46:33.831Z,100846.66
2023-04-30T09:51:35.662Z,100848.75
2023-04-30T09:56:39.367Z,100838.69
2023-04-30T10:01:41.326Z,100832.50
2023-04-30T10:06:43.444Z,100832.66
2023-04-30T10:11:46.103Z,100821.34
2023-04-30T10:16:57.589Z,100820.94
2023-04-30T10:21:59.534Z,100811.88
2023-04-30T10:27:01.107Z,100800.81
2023-04-30T10:32:05.062Z,100795.44
2023-04-30T10:37:18.899Z,100780.78
2023-04-30T10:42:20.324Z,100786.91
2023-04-30T10:47:28.875Z,100779.38
2023-04-30T10:52:30.548Z,100769.97
2023-04-30T10:57:32.250Z,100754.81
2023-04-30T11:02:44.418Z,100764.59
2023-04-30T11:07:58.516Z,100758.22
2023-04-30T11:13:04.224Z,100743.56
2023-04-30T11:18:08.146Z,100739.16
2023-04-30T11:23:19.711Z,100743.50
2023-04-30T11:28:27.277Z,100737.63
2023-04-30T11:33:33.330Z,100728.13
2023-04-30T11:38:36.286Z,100722.25
2023-04-30T11:43:37.692Z,100712.81
2023-04-30T11:48:44.467Z,100708.28
2023-04-30T11:53:50.279Z,100708.56
2023-04-30T11:58:53.414Z,100707.13
2023-04-30T12:03:56.338Z,100706.47
2023-04-30T12:09:04.661Z,100706.34
2023-04-30T12:14:10.421Z,100689.78
2023-04-30T12:19:12.726Z,100678.34
2023-04-30T12:24:16.659Z,100682.16
2023-04-30T12:29:18.914Z,100684.63
2023-04-30T12:34:20.343Z,100674.81
2023-04-30T12:39:21.762Z,100683.03
2023-04-30T12:44:25.379Z,100676.56
2023-04-30T12:49:33.487Z,100667.13
2023-04-30T12:54:36.731Z,100667.47
2023-04-30T12:59:40.744Z,100649.53
2023-04-30T13:04:42.703Z,100652.66
2023-04-30T13:09:44.025Z,100642.03
2023-04-30T13:14:45.459Z,100639.84
2023-04-30T13:19:46.930Z,100627.72
2023-04-30T13:24:48.243Z,100618.88
2023-04-30T13:29:49.605Z,100614.47
2023-04-30T13:34:54.875Z,100615.03
2023-04-30T13:39:56.514Z,100601.28
2023-04-30T13:44:58.205Z,100604.03
2023-04-30T13:49:59.879Z,100593.78
2023-04-30T13:55:01.568Z,100599.28
2023-04-30T14:00:04.548Z,100592.81
2023-04-30T14:05:07.013Z,100589.81
2023-04-30T14:10:08.757Z,100589.00
2023-04-30T14:15:10.436Z,100590.91
2023-04-30T14:20:12.404Z,100587.25
2023-04-30T14:25:13.785Z,100580.66
2023-04-30T14:30:15.587Z,100575.31
2023-04-30T14:35:17.101Z,100576.31
2023-04-30T14:40:18.476Z,100570.13
2023-04-30T14:45:19.838Z,100561.09
2023-04-30T14:50:21.180Z,100547.91
2023-04-30T14:55:22.613Z,100551.00
2023-04-30T15:00:24.075Z,100537.38
2023-04-30T15:05:26.165Z,100542.81
2023-04-30T15:10:27.485Z,100543.63
2023-04-30T15:15:29.554Z,100538.81
2023-04-30T15:20:31.538Z,100537.03
2023-04-30T15:25:32.941Z,100534.28
2023-04-30T15:30:34.308Z,100529.28
2023-04-30T15:35:35.761Z,100524.50
2023-04-30T15:40:37.157Z,100527.44
2023-04-30T15:45:38.715Z,100524.03
2023-04-30T15:50:40.126Z,100518.13
2023-04-30T15:55:41.537Z,100518.38
2023-04-30T16:00:44.069Z,100501.44
2023-04-30T16:05:45.485Z,100511.38
2023-04-30T16:10:47.045Z,100510.78
2023-04-30T16:15:48.475Z,100501.22
2023-04-30T16:20:49.942Z,100492.81
2023-04-30T16:25:51.300Z,100484.94
2023-04-30T16:30:52.652Z,100502.16
2023-04-30T16:35:55.045Z,100490.94
2023-04-30T16:40:56.584Z,100495.16
2023-04-30T16:45:58.278Z,100491.56
2023-04-30T16:50:59.600Z,100476.81
2023-04-30T16:56:00.994Z,100472.88
2023-04-30T17:01:02.353Z,100476.53
2023-04-30T17:06:05.161Z,100463.56
2023-04-30T17:11:06.621Z,100458.16
2023-04-30T17:16:08.058Z,100467.19
2023-04-30T17:21:09.433Z,100473.88
2023-04-30T17:26:10.826Z,100462.56
2023-04-30T17:31:13.457Z,100467.78
2023-04-30T17:36:15.691Z,100461.13
2023-04-30T17:41:18.476Z,100448.78
2023-04-30T17:46:19.946Z,100458.50
2023-04-30T17:51:21.388Z,100459.22
2023-04-30T17:56:24.690Z,100455.97
2023-04-30T18:01:26.728Z,100457.75
2023-04-30T18:06:28.335Z,100456.78
2023-04-30T18:11:29.784Z,100454.59
2023-04-30T18:16:33.346Z,100460.75
2023-04-30T18:21:35.062Z,100460.09
2023-04-30T18:26:37.434Z,100465.09
2023-04-30T18:31:38.906Z,100460.75
2023-04-30T18:36:42.953Z,100460.13
2023-04-30T18:41:44.641Z,100457.28
2023-04-30T18:46:46.048Z,100458.41
2023-04-30T18:51:47.392Z,100459.34
2023-04-30T18:56:48.708Z,100466.22
2023-04-30T19:01:50.109Z,100466.63
2023-04-30T19:06:52.688Z,100465.00
2023-04-30T19:11:54.106Z,100474.03
2023-04-30T19:16:55.721Z,100479.53
2023-04-30T19:21:57.066Z,100475.38
2023-04-30T19:26:58.390Z,100481.09
2023-04-30T19:31:59.926Z,100490.06
2023-04-30T19:37:01.383Z,100489.25
2023-04-30T19:42:03.613Z,100495.91
2023-04-30T19:47:04.949Z,100491.19
2023-04-30T19:52:07.904Z,100498.00
2023-04-30T19:57:09.409Z,100494.13
2023-04-30T20:02:10.895Z,100497.50
2023-04-30T20:07:12.909Z,100499.91
2023-04-30T20:12:14.230Z,100499.53
2023-04-30T20:17:16.066Z,100497.72
2023-04-30T20:22:17.599Z,100503.16
2023-04-30T20:27:18.911Z,100501.50
2023-04-30T20:32:20.261Z,100494.44
2023-04-30T20:37:21.597Z,100502.81
2023-04-30T20:42:23.140Z,100503.03
2023-04-30T20:47:24.648Z,100498.63
2023-04-30T20:52:26.136Z,100500.72
2023-04-30T20:57:27.500Z,100499.88
2023-04-30T21:02:29.563Z,100498.22
2023-04-30T21:07:34.379Z,100503.84
2023-04-30T21:12:35.759Z,100501.97
2023-04-30T21:17:37.259Z,100512.34
2023-04-30T21:22:39.471Z,100519.41
2023-04-30T21:27:40.833Z,100518.34
2023-04-30T21:32:47.040Z,100511.00
2023-04-30T21:37:48.529Z,100502.88
2023-04-30T21:42:50.331Z,100510.16
2023-04-30T21:47:51.841Z,100504.13
2023-04-30T21:52:53.458Z,100503.94
2023-04-30T21:57:54.836Z,100497.03
2023-04-30T22:02:56.234Z,100504.75
2023-04-30T22:07:57.646Z,100499.09
2023-04-30T22:12:58.955Z,100496.41
2023-04-30T22:18:00.424Z,100500.56
2023-04-30T22:23:01.798Z,100497.84
2023-04-30T22:28:03.271Z,100497.22
2023-04-30T22:33:04.802Z,100500.34
2023-04-30T22:38:07.157Z,100497.41
2023-04-30T22:43:09.373Z,100491.34
2023-04-30T22:48:11.030Z,100493.03
2023-04-30T22:53:13.214Z,100488.06
2023-04-30T22:58:14.673Z,100494.13
2023-04-30T23:03:16.173Z,100491.41
2023-04-30T23:08:17.753Z,100492.84
2023-04-30T23:13:19.234Z,100491.41
2023-04-30T23:18:21.410Z,100482.88
2023-04-30T23:23:23.466Z,100477.88
2023-04-30T23:28:25.059Z,100476.22
2023-04-30T23:33:26.749Z,100469.34
2023-04-30T23:38:28.107Z,100468.72
2023-04-30T23:43:31.283Z,100459.94
2023-04-30T23:48:32.675Z,100456.38
2023-04-30T23:53:35.082Z,100448.25
2023-04-30T23:58:36.524Z,100445.34
